createdAt,value
2018-05-11T00:01:10.289Z,13.28
2018-05-11T00:03:38.528Z,13.32
2018-05-11T00:06:06.844Z,13.31
2018-05-11T00:08:35.456Z,13.30
2018-05-11T00:11:03.765Z,13.30
2018-05-11T00:13:32.092Z,13.31
2018-05-11T00:16:00.936Z,13.35
2018-05-11T00:18:29.251Z,13.25
2018-05-11T00:20:57.432Z,13.24
2018-05-11T00:23:26.211Z,13.27
2018-05-11T00:25:54.387Z,13.22
2018-05-11T00:28:22.613Z,13.15
2018-05-11T00:30:51.326Z,13.19
2018-05-11T00:33:19.542Z,13.05
2018-05-11T00:35:47.727Z,12.94
2018-05-11T00:38:16.202Z,12.91
2018-05-11T00:40:44.402Z,12.94
2018-05-11T00:43:12.712Z,12.91
2018-05-11T00:45:41.337Z,12.92
2018-05-11T00:48:09.539Z,12.91
2018-05-11T00:50:37.947Z,12.95
2018-05-11T00:53:06.466Z,12.93
2018-05-11T00:55:46.575Z,12.81
2018-05-11T00:58:14.761Z,12.78
2018-05-11T01:00:43.149Z,12.80
2018-05-11T01:03:11.776Z,12.72
2018-05-11T01:05:39.975Z,12.72
2018-05-11T01:08:08.386Z,12.69
2018-05-11T01:10:37.001Z,12.66
2018-05-11T01:13:05.226Z,12.74
2018-05-11T01:15:33.625Z,12.65
2018-05-11T01:18:02.106Z,12.61
2018-05-11T01:20:30.294Z,12.57
2018-05-11T01:22:58.740Z,12.56
2018-05-11T01:25:27.382Z,12.58
2018-05-11T01:27:55.574Z,12.54
2018-05-11T01:30:23.993Z,12.54
2018-05-11T01:32:52.541Z,12.56
2018-05-11T01:35:20.763Z,12.55
2018-05-11T01:37:49.173Z,12.57
2018-05-11T01:40:17.757Z,12.56
2018-05-11T01:42:46.054Z,12.50
2018-05-11T01:45:14.292Z,12.51
2018-05-11T01:47:42.984Z,12.52
2018-05-11T01:50:11.214Z,12.42
2018-05-11T01:52:39.607Z,12.38
2018-05-11T01:55:08.078Z,12.33
2018-05-11T01:57:36.282Z,12.31
2018-05-11T02:00:04.646Z,12.22
2018-05-11T02:02:33.202Z,12.22
2018-05-11T02:05:01.405Z,12.14
2018-05-11T02:07:29.772Z,12.14
2018-05-11T02:09:58.407Z,12.21
2018-05-11T02:12:26.804Z,12.20
2018-05-11T02:14:55.059Z,12.11
2018-05-11T02:17:23.596Z,12.03
2018-05-11T02:19:51.815Z,11.99
2018-05-11T02:22:20.086Z,11.99
2018-05-11T02:24:48.606Z,12.02
2018-05-11T02:27:16.841Z,12.01
2018-05-11T02:29:45.233Z,12.01
2018-05-11T02:32:13.893Z,12.00
2018-05-11T02:34:42.205Z,11.99
2018-05-11T02:37:10.419Z,12.00
2018-05-11T02:39:39.024Z,12.02
2018-05-11T02:42:07.330Z,12.00
2018-05-11T02:44:35.828Z,11.98
2018-05-11T02:47:04.271Z,12.00
2018-05-11T02:49:32.572Z,12.01
2018-05-11T02:52:00.866Z,11.96
2018-05-11T02:54:29.767Z,11.93
2018-05-11T02:57:19.084Z,11.96
2018-05-11T02:59:52.906Z,12.04
2018-05-11T03:02:21.131Z,11.99
2018-05-11T03:04:49.644Z,11.93
2018-05-11T03:07:18.174Z,11.95
2018-05-11T03:09:46.424Z,11.98
2018-05-11T03:12:14.862Z,11.94
2018-05-11T03:14:43.143Z,11.94
2018-05-11T03:17:11.484Z,11.95
2018-05-11T03:19:40.102Z,11.93
2018-05-11T03:22:08.294Z,11.91
2018-05-11T03:24:36.534Z,11.93
2018-05-11T03:27:05.223Z,11.91
2018-05-11T03:29:33.447Z,11.85
2018-05-11T03:32:01.773Z,11.83
2018-05-11T03:34:30.483Z,11.82
2018-05-11T03:36:58.871Z,11.80
2018-05-11T03:39:27.059Z,11.85
2018-05-11T03:41:55.749Z,11.81
2018-05-11T03:44:24.036Z,11.83
2018-05-11T03:46:52.369Z,11.87
2018-05-11T03:49:20.848Z,11.86
2018-05-11T03:51:49.262Z,11.87
2018-05-11T03:54:17.494Z,11.86
2018-05-11T03:56:46.105Z,11.76
2018-05-11T03:59:14.306Z,11.82
2018-05-11T04:01:54.463Z,11.79
2018-05-11T04:04:34.545Z,11.81
2018-05-11T04:07:14.742Z,11.78
2018-05-11T04:09:42.923Z,11.79
2018-05-11T04:12:11.484Z,11.80
2018-05-11T04:14:39.675Z,11.80
2018-05-11T04:17:08.134Z,11.81
2018-05-11T04:19:36.645Z,11.79
2018-05-11T04:22:05.040Z,11.80
2018-05-11T04:24:33.224Z,11.84
2018-05-11T04:27:01.844Z,11.86
2018-05-11T04:29:30.077Z,11.85
2018-05-11T04:31:58.355Z,11.86
2018-05-11T04:34:27.000Z,11.91
2018-05-11T04:36:55.222Z,11.87
2018-05-11T04:39:23.953Z,11.93
2018-05-11T04:41:52.760Z,11.96
2018-05-11T04:44:22.809Z,11.95
2018-05-11T04:46:51.676Z,11.89
2018-05-11T04:49:19.885Z,11.94
2018-05-11T04:51:48.698Z,11.96
2018-05-11T04:54:18.704Z,11.98
2018-05-11T04:56:50.726Z,11.96
2018-05-11T04:59:23.832Z,12.01
2018-05-11T05:01:59.963Z,12.03
2018-05-11T05:04:36.861Z,12.04
2018-05-11T05:07:08.865Z,12.08
2018-05-11T05:09:48.573Z,12.13
2018-05-11T05:12:18.350Z,12.18
2018-05-11T05:14:49.365Z,12.26
2018-05-11T05:17:17.674Z,12.32
2018-05-11T05:19:46.077Z,12.32
2018-05-11T05:22:14.818Z,12.36
2018-05-11T05:24:43.334Z,12.39
2018-05-11T05:27:11.526Z,12.45
2018-05-11T05:29:39.953Z,12.56
2018-05-11T05:32:08.807Z,12.61
2018-05-11T05:34:37.119Z,12.59
2018-05-11T05:37:05.321Z,12.68
2018-05-11T05:39:36.791Z,12.79
2018-05-11T05:42:08.440Z,12.95
2018-05-11T05:44:41.670Z,13.08
2018-05-11T05:47:17.295Z,13.13
2018-05-11T05:49:48.227Z,13.21
2018-05-11T05:52:17.794Z,13.31
2018-05-11T05:54:46.866Z,13.32
2018-05-11T05:57:17.660Z,13.39
2018-05-11T05:59:48.449Z,13.49
2018-05-11T06:02:19.618Z,13.66
2018-05-11T06:04:50.664Z,13.79
2018-05-11T06:07:20.028Z,13.89
2018-05-11T06:09:48.265Z,14.01
2018-05-11T06:12:16.444Z,14.03
2018-05-11T06:14:45.155Z,13.94
2018-05-11T06:17:13.415Z,13.85
2018-05-11T06:19:41.597Z,13.81
2018-05-11T06:22:10.334Z,13.76
2018-05-11T06:24:38.590Z,13.77
2018-05-11T06:27:06.949Z,13.78
2018-05-11T06:29:35.774Z,13.84
2018-05-11T06:32:04.574Z,13.89
2018-05-11T06:34:33.018Z,13.98
2018-05-11T06:37:01.629Z,14.03
2018-05-11T06:39:30.245Z,14.05
2018-05-11T06:41:58.510Z,14.01
2018-05-11T06:44:26.779Z,14.05
2018-05-11T06:46:55.267Z,14.01
2018-05-11T06:49:23.472Z,14.02
2018-05-11T06:51:51.847Z,14.08
2018-05-11T06:54:20.434Z,14.03
2018-05-11T06:56:48.768Z,14.02
2018-05-11T06:59:17.270Z,14.10
2018-05-11T07:01:46.059Z,14.20
2018-05-11T07:04:15.068Z,14.25
2018-05-11T07:06:43.257Z,14.19
2018-05-11T07:09:11.551Z,14.21
2018-05-11T07:11:40.343Z,14.26
2018-05-11T07:14:08.533Z,14.39
2018-05-11T07:16:36.945Z,14.55
2018-05-11T07:19:05.488Z,14.61
2018-05-11T07:21:33.678Z,14.69
2018-05-11T07:24:01.929Z,14.76
2018-05-11T07:26:30.704Z,14.87
2018-05-11T07:28:59.054Z,14.95
2018-05-11T07:31:27.729Z,14.91
2018-05-11T07:33:56.287Z,14.99
2018-05-11T07:36:24.470Z,15.10
2018-05-11T07:38:53.066Z,15.24
2018-05-11T07:41:21.608Z,15.37
2018-05-11T07:43:49.823Z,15.48
2018-05-11T07:46:18.293Z,15.67
2018-05-11T07:48:46.705Z,15.89
2018-05-11T07:51:14.914Z,16.02
2018-05-11T07:53:43.345Z,16.19
2018-05-11T07:56:11.889Z,16.17
2018-05-11T07:58:40.107Z,16.08
2018-05-11T08:01:08.570Z,15.98
2018-05-11T08:03:37.087Z,15.89
2018-05-11T08:06:05.299Z,15.87
2018-05-11T08:08:33.634Z,15.87
2018-05-11T08:11:02.252Z,15.92
2018-05-11T08:13:30.458Z,16.04
2018-05-11T08:15:58.853Z,16.01
2018-05-11T08:18:27.473Z,16.24
2018-05-11T08:20:55.698Z,16.28
2018-05-11T08:23:24.074Z,16.22
2018-05-11T08:25:52.563Z,16.21
2018-05-11T08:28:20.808Z,16.35
2018-05-11T08:30:49.126Z,16.53
2018-05-11T08:33:17.739Z,16.87
2018-05-11T08:35:46.045Z,17.03
2018-05-11T08:38:14.335Z,17.10
2018-05-11T08:40:42.969Z,17.26
2018-05-11T08:43:11.190Z,17.29
2018-05-11T08:45:39.621Z,17.44
2018-05-11T08:48:08.096Z,17.47
2018-05-11T08:50:36.301Z,17.51
2018-05-11T08:53:04.873Z,17.27
2018-05-11T08:55:33.294Z,17.25
2018-05-11T08:58:01.530Z,17.32
2018-05-11T09:00:29.814Z,17.43
2018-05-11T09:02:58.533Z,17.64
2018-05-11T09:05:26.689Z,17.66
2018-05-11T09:07:55.106Z,17.53
2018-05-11T09:10:23.688Z,17.40
2018-05-11T09:12:51.882Z,17.34
2018-05-11T09:15:20.244Z,17.48
2018-05-11T09:17:48.879Z,17.57
2018-05-11T09:20:17.074Z,17.56
2018-05-11T09:22:45.398Z,17.65
2018-05-11T09:25:14.021Z,17.78
2018-05-11T09:27:42.230Z,17.72
2018-05-11T09:30:10.512Z,17.62
2018-05-11T09:32:39.092Z,17.59
2018-05-11T09:35:07.334Z,17.50
2018-05-11T09:37:35.767Z,17.62
2018-05-11T09:40:04.259Z,17.75
2018-05-11T09:42:32.461Z,17.90
2018-05-11T09:45:00.939Z,17.93
2018-05-11T09:47:29.596Z,18.08
2018-05-11T09:49:57.907Z,18.21
2018-05-11T09:52:26.108Z,18.19
2018-05-11T09:54:54.701Z,18.07
2018-05-11T09:57:22.940Z,18.14
2018-05-11T09:59:51.276Z,18.15
2018-05-11T10:02:19.852Z,18.14
2018-05-11T10:04:48.043Z,18.27
2018-05-11T10:07:16.483Z,18.21
2018-05-11T10:09:45.106Z,18.03
2018-05-11T10:12:13.340Z,18.28
2018-05-11T10:14:41.607Z,18.38
2018-05-11T10:17:10.212Z,18.31
2018-05-11T10:19:38.429Z,18.24
2018-05-11T10:22:06.818Z,18.37
2018-05-11T10:24:35.442Z,18.32
2018-05-11T10:27:03.652Z,18.53
2018-05-11T10:29:32.027Z,18.67
2018-05-11T10:32:00.573Z,18.90
2018-05-11T10:34:28.913Z,19.10
2018-05-11T10:36:57.208Z,19.14
2018-05-11T10:39:25.749Z,19.08
2018-05-11T10:41:53.980Z,19.06
2018-05-11T10:44:22.365Z,19.20
2018-05-11T10:46:50.866Z,19.26
2018-05-11T10:49:19.098Z,19.26
2018-05-11T10:51:47.491Z,19.34
2018-05-11T10:54:16.197Z,19.50
2018-05-11T10:56:44.376Z,19.73
2018-05-11T10:59:12.762Z,19.86
2018-05-11T11:01:41.339Z,19.93
2018-05-11T11:04:09.533Z,20.17
2018-05-11T11:06:37.886Z,20.36
2018-05-11T11:09:06.610Z,20.35
2018-05-11T11:11:34.854Z,20.22
2018-05-11T11:14:03.136Z,20.40
2018-05-11T11:16:31.714Z,20.66
2018-05-11T11:19:00.041Z,20.47
2018-05-11T11:21:28.242Z,20.64
2018-05-11T11:23:56.848Z,20.55
2018-05-11T11:26:25.023Z,20.27
2018-05-11T11:28:53.422Z,20.45
2018-05-11T11:31:22.023Z,20.64
2018-05-11T11:33:50.263Z,20.62
2018-05-11T11:36:18.652Z,20.63
2018-05-11T11:38:47.322Z,20.53
2018-05-11T11:41:15.521Z,20.72
2018-05-11T11:43:43.893Z,21.07
2018-05-11T11:46:12.465Z,21.34
2018-05-11T11:48:40.666Z,21.95
2018-05-11T11:51:08.971Z,22.26
2018-05-11T11:53:37.604Z,22.94
2018-05-11T11:56:05.790Z,23.52
2018-05-11T11:58:34.158Z,23.88
2018-05-11T12:01:02.835Z,24.45
2018-05-11T12:03:31.093Z,24.55
2018-05-11T12:05:59.376Z,24.78
2018-05-11T12:08:27.903Z,25.09
2018-05-11T12:10:56.126Z,25.19
2018-05-11T12:13:24.453Z,25.02
2018-05-11T12:15:53.087Z,25.32
2018-05-11T12:18:21.260Z,25.37
2018-05-11T12:20:49.633Z,25.79
2018-05-11T12:23:18.251Z,26.14
2018-05-11T12:25:46.448Z,26.20
2018-05-11T12:28:14.756Z,26.10
2018-05-11T12:30:43.455Z,26.32
2018-05-11T12:33:11.647Z,26.34
2018-05-11T12:35:40.008Z,26.03
2018-05-11T12:38:08.635Z,25.85
2018-05-11T12:40:36.866Z,26.20
2018-05-11T12:43:05.167Z,27.03
2018-05-11T12:45:33.771Z,27.52
2018-05-11T12:48:01.975Z,28.33
2018-05-11T12:50:30.392Z,28.30
2018-05-11T12:52:59.043Z,28.97
2018-05-11T12:55:27.177Z,29.45
2018-05-11T12:57:55.439Z,29.54
2018-05-11T13:00:24.127Z,28.53
2018-05-11T13:02:52.305Z,28.11
2018-05-11T13:05:20.597Z,28.13
2018-05-11T13:07:49.265Z,28.17
2018-05-11T13:10:17.453Z,27.59
2018-05-11T13:12:45.787Z,25.96
2018-05-11T13:15:14.396Z,25.72
2018-05-11T13:17:42.617Z,25.82
2018-05-11T13:20:10.936Z,25.86
2018-05-11T13:22:39.558Z,25.60
2018-05-11T13:25:07.789Z,26.07
2018-05-11T13:27:36.208Z,26.11
2018-05-11T13:30:04.933Z,26.28
2018-05-11T13:32:33.127Z,26.87
2018-05-11T13:35:01.315Z,27.45
2018-05-11T13:37:29.997Z,28.16
2018-05-11T13:39:58.212Z,28.63
2018-05-11T13:42:26.627Z,28.32
2018-05-11T13:44:55.129Z,28.33
2018-05-11T13:47:23.324Z,28.79
2018-05-11T13:49:51.660Z,29.27
2018-05-11T13:52:20.242Z,29.24
2018-05-11T13:54:48.437Z,28.98
2018-05-11T13:57:16.897Z,29.27
2018-05-11T13:59:45.472Z,29.06
2018-05-11T14:02:13.697Z,28.84
2018-05-11T14:04:41.960Z,28.41
2018-05-11T14:07:10.214Z,28.56
2018-05-11T14:09:38.395Z,28.79
2018-05-11T14:12:06.619Z,28.95
2018-05-11T14:14:35.378Z,28.68
2018-05-11T14:17:03.547Z,28.39
2018-05-11T14:19:31.831Z,28.51
2018-05-11T14:22:00.512Z,28.33
2018-05-11T14:24:28.705Z,28.59
2018-05-11T14:26:57.067Z,28.58
2018-05-11T14:29:25.747Z,29.06
2018-05-11T14:31:54.014Z,29.61
2018-05-11T14:34:22.141Z,29.00
2018-05-11T14:36:50.884Z,29.14
2018-05-11T14:39:19.116Z,29.86
2018-05-11T14:41:47.280Z,29.95
2018-05-11T14:44:16.475Z,30.07
2018-05-11T14:46:44.678Z,29.88
2018-05-11T14:49:13.237Z,29.29
2018-05-11T14:51:41.803Z,29.06
2018-05-11T14:54:09.992Z,29.16
2018-05-11T14:56:38.307Z,29.55
2018-05-11T14:59:06.982Z,29.33
2018-05-11T15:01:35.203Z,29.08
2018-05-11T15:04:03.526Z,28.10
2018-05-11T15:06:32.048Z,27.77
2018-05-11T15:09:00.253Z,27.60
2018-05-11T15:11:28.664Z,26.84
2018-05-11T15:13:57.084Z,26.59
2018-05-11T15:16:25.261Z,26.62
2018-05-11T15:18:54.014Z,26.35
2018-05-11T15:21:22.712Z,26.45
2018-05-11T15:23:50.893Z,26.39
2018-05-11T15:26:19.160Z,26.26
2018-05-11T15:28:47.982Z,26.01
2018-05-11T15:31:16.361Z,25.94
2018-05-11T15:33:44.993Z,25.71
2018-05-11T15:36:13.604Z,25.46
2018-05-11T15:38:41.822Z,25.15
2018-05-11T15:41:10.011Z,25.17
2018-05-11T15:43:38.643Z,25.22
2018-05-11T15:46:06.938Z,24.91
2018-05-11T15:48:35.360Z,24.73
2018-05-11T15:51:03.880Z,24.61
2018-05-11T15:53:32.100Z,24.53
2018-05-11T15:56:00.465Z,24.49
2018-05-11T15:58:28.995Z,24.67
2018-05-11T16:00:57.194Z,24.71
2018-05-11T16:03:25.614Z,24.79
2018-05-11T16:05:54.319Z,24.95
2018-05-11T16:08:22.548Z,24.93
2018-05-11T16:10:50.735Z,24.97
2018-05-11T16:13:19.009Z,24.68
2018-05-11T16:15:47.196Z,24.53
2018-05-11T16:18:16.044Z,24.40
2018-05-11T16:20:46.539Z,24.53
2018-05-11T16:23:15.560Z,24.62
2018-05-11T16:25:43.760Z,24.56
2018-05-11T16:28:12.259Z,24.49
2018-05-11T16:30:40.966Z,24.32
2018-05-11T16:33:09.183Z,24.18
2018-05-11T16:35:37.392Z,24.04
2018-05-11T16:38:05.994Z,24.04
2018-05-11T16:40:34.307Z,24.04
2018-05-11T16:43:02.395Z,24.00
2018-05-11T16:45:31.127Z,23.94
2018-05-11T16:47:59.331Z,23.87
2018-05-11T16:50:27.503Z,23.78
2018-05-11T16:52:56.495Z,23.69
2018-05-11T16:55:25.199Z,23.85
2018-05-11T16:57:53.373Z,23.83
2018-05-11T17:00:21.558Z,23.91
2018-05-11T17:02:50.211Z,23.89
2018-05-11T17:05:18.392Z,23.96
2018-05-11T17:07:46.646Z,23.89
2018-05-11T17:10:15.375Z,23.84
2018-05-11T17:12:43.560Z,23.84
2018-05-11T17:15:12.481Z,23.73
2018-05-11T17:17:41.702Z,23.66
2018-05-11T17:20:11.007Z,23.65
2018-05-11T17:22:39.333Z,23.66
2018-05-11T17:25:08.304Z,23.56
2018-05-11T17:27:37.263Z,23.47
2018-05-11T17:30:05.552Z,23.34
2018-05-11T17:32:34.596Z,23.39
2018-05-11T17:35:03.633Z,23.26
2018-05-11T17:37:32.175Z,23.28
2018-05-11T17:40:00.843Z,23.26
2018-05-11T17:42:29.348Z,23.14
2018-05-11T17:44:58.173Z,23.03
2018-05-11T17:47:27.175Z,22.86
2018-05-11T17:49:55.400Z,22.80
2018-05-11T17:52:24.305Z,22.82
2018-05-11T17:54:53.037Z,22.80
2018-05-11T17:57:21.260Z,22.85
2018-05-11T17:59:49.436Z,22.87
2018-05-11T18:02:18.380Z,22.79
2018-05-11T18:04:46.733Z,22.76
2018-05-11T18:07:14.977Z,22.72
2018-05-11T18:09:43.895Z,22.64
2018-05-11T18:12:12.526Z,22.60
2018-05-11T18:14:40.744Z,22.54
2018-05-11T18:17:09.742Z,22.48
2018-05-11T18:19:38.864Z,22.45
2018-05-11T18:22:07.578Z,22.39
2018-05-11T18:24:35.813Z,22.35
2018-05-11T18:27:04.596Z,22.30
2018-05-11T18:29:33.451Z,22.28
2018-05-11T18:32:02.498Z,22.25
2018-05-11T18:34:31.005Z,22.19
2018-05-11T18:36:59.569Z,22.15
2018-05-11T18:39:28.455Z,22.08
2018-05-11T18:41:57.692Z,22.00
2018-05-11T18:44:25.917Z,21.92
2018-05-11T18:46:54.774Z,21.83
2018-05-11T18:49:23.919Z,21.71
2018-05-11T18:51:53.217Z,21.63
2018-05-11T18:54:22.617Z,21.56
2018-05-11T18:56:50.720Z,21.47
2018-05-11T18:59:19.302Z,21.38
2018-05-11T19:01:48.236Z,21.31
2018-05-11T19:04:17.286Z,21.18
2018-05-11T19:06:45.748Z,21.09
2018-05-11T19:09:14.345Z,21.07
2018-05-11T19:11:43.293Z,20.97
2018-05-11T19:14:12.208Z,20.91
2018-05-11T19:16:40.392Z,20.82
2018-05-11T19:19:09.374Z,20.77
2018-05-11T19:21:38.302Z,20.75
2018-05-11T19:24:07.258Z,20.67
2018-05-11T19:26:35.444Z,20.60
2018-05-11T19:29:03.658Z,20.57
2018-05-11T19:31:32.317Z,20.62
2018-05-11T19:34:00.500Z,20.56
2018-05-11T19:36:28.697Z,20.54
2018-05-11T19:38:57.430Z,20.46
2018-05-11T19:41:25.614Z,20.40
2018-05-11T19:43:53.815Z,20.33
2018-05-11T19:46:22.537Z,20.32
2018-05-11T19:48:50.717Z,20.27
2018-05-11T19:51:18.913Z,20.22
2018-05-11T19:53:47.637Z,20.14
2018-05-11T19:56:15.846Z,20.07
2018-05-11T19:58:44.108Z,20.00
2018-05-11T20:01:12.724Z,19.95
2018-05-11T20:03:40.913Z,19.93
2018-05-11T20:06:09.092Z,19.84
2018-05-11T20:08:37.751Z,19.78
2018-05-11T20:11:05.982Z,19.73
2018-05-11T20:13:34.164Z,19.69
2018-05-11T20:16:02.888Z,19.69
2018-05-11T20:18:31.080Z,19.67
2018-05-11T20:20:59.269Z,19.64
2018-05-11T20:23:28.025Z,19.61
2018-05-11T20:25:56.201Z,19.59
2018-05-11T20:28:24.391Z,19.55
2018-05-11T20:30:53.189Z,19.52
2018-05-11T20:33:21.394Z,19.48
2018-05-11T20:35:50.170Z,19.46
2018-05-11T20:38:18.818Z,19.46
2018-05-11T20:40:47.106Z,19.42
2018-05-11T20:43:15.758Z,19.41
2018-05-11T20:45:44.318Z,19.40
2018-05-11T20:48:12.513Z,19.44
2018-05-11T20:50:40.751Z,19.46
2018-05-11T20:53:09.451Z,19.50
2018-05-11T20:55:37.697Z,19.51
2018-05-11T20:58:05.881Z,19.48
2018-05-11T21:00:34.471Z,19.42
2018-05-11T21:03:02.700Z,19.42
2018-05-11T21:05:30.897Z,19.43
2018-05-11T21:07:59.555Z,19.43
2018-05-11T21:10:27.790Z,19.39
2018-05-11T21:12:55.964Z,19.38
2018-05-11T21:15:24.628Z,19.33
2018-05-11T21:17:52.826Z,19.26
2018-05-11T21:20:21.000Z,19.25
2018-05-11T21:22:49.777Z,19.21
2018-05-11T21:25:18.007Z,19.15
2018-05-11T21:27:46.179Z,19.13
2018-05-11T21:30:14.744Z,19.10
2018-05-11T21:32:42.998Z,19.06
2018-05-11T21:35:12.055Z,19.01
2018-05-11T21:37:40.494Z,18.98
2018-05-11T21:40:09.172Z,18.96
2018-05-11T21:42:37.355Z,18.95
2018-05-11T21:45:05.555Z,18.94
2018-05-11T21:47:34.212Z,18.92
2018-05-11T21:50:02.392Z,18.88
2018-05-11T21:52:30.607Z,18.87
2018-05-11T21:54:59.241Z,18.87
2018-05-11T21:57:27.434Z,18.91
2018-05-11T21:59:55.624Z,18.91
2018-05-11T22:02:24.384Z,18.91
2018-05-11T22:04:52.564Z,18.89
2018-05-11T22:07:20.740Z,18.89
2018-05-11T22:09:49.464Z,18.88
2018-05-11T22:12:17.654Z,18.86
2018-05-11T22:14:45.825Z,18.80
2018-05-11T22:17:14.555Z,18.78
2018-05-11T22:19:42.711Z,18.77
2018-05-11T22:22:10.908Z,18.74
2018-05-11T22:24:39.684Z,18.70
2018-05-11T22:27:07.884Z,18.67
2018-05-11T22:29:36.074Z,18.62
2018-05-11T22:32:04.831Z,18.57
2018-05-11T22:34:33.001Z,18.55
2018-05-11T22:37:01.300Z,18.51
2018-05-11T22:39:30.046Z,18.49
2018-05-11T22:41:58.248Z,18.51
2018-05-11T22:44:26.456Z,18.51
2018-05-11T22:46:55.272Z,18.57
2018-05-11T22:49:23.444Z,18.56
2018-05-11T22:51:51.656Z,18.55
2018-05-11T22:54:20.367Z,18.55
2018-05-11T22:56:48.552Z,18.52
2018-05-11T22:59:17.298Z,18.49
2018-05-11T23:01:45.951Z,18.47
2018-05-11T23:04:14.259Z,18.42
2018-05-11T23:06:42.436Z,18.38
2018-05-11T23:09:10.947Z,18.34
2018-05-11T23:11:39.162Z,18.29
2018-05-11T23:14:07.593Z,18.27
2018-05-11T23:16:36.103Z,18.22
2018-05-11T23:19:04.317Z,18.18
2018-05-11T23:21:32.618Z,18.15
2018-05-11T23:24:01.103Z,18.11
2018-05-11T23:26:29.292Z,18.06
2018-05-11T23:28:57.647Z,17.99
2018-05-11T23:31:26.237Z,17.99
2018-05-11T23:33:54.418Z,17.94
2018-05-11T23:36:22.818Z,17.91
2018-05-11T23:38:51.448Z,17.89
2018-05-11T23:41:19.635Z,17.86
2018-05-11T23:43:47.942Z,17.85
2018-05-11T23:46:16.435Z,17.83
2018-05-11T23:48:44.657Z,17.83
2018-05-11T23:51:12.973Z,17.81
2018-05-11T23:53:41.585Z,17.81
2018-05-11T23:56:09.771Z,17.78
2018-05-11T23:58:38.131Z,17.77
